createdAt,value
2018-01-12T00:00:10.062Z,101867.94
2018-01-12T00:03:19.602Z,101860.75
2018-01-12T00:06:28.352Z,101862.02
2018-01-12T00:09:42.772Z,101870.06
2018-01-12T00:12:57.593Z,101878.50
2018-01-12T00:16:07.743Z,101882.34
2018-01-12T00:19:18.686Z,101880.19
2018-01-12T00:22:31.914Z,101887.39
2018-01-12T00:25:43.016Z,101887.39
2018-01-12T00:28:52.985Z,101892.05
2018-01-12T00:32:03.214Z,101897.55
2018-01-12T00:35:11.401Z,101902.20
2018-01-12T00:38:20.649Z,101908.97
2018-01-12T00:41:32.638Z,101907.70
2018-01-12T00:44:43.219Z,101903.48
2018-01-12T00:47:52.084Z,101900.94
2018-01-12T00:51:02.152Z,101902.21
2018-01-12T00:54:14.768Z,101904.32
2018-01-12T00:57:27.046Z,101904.75
2018-01-12T01:00:35.667Z,101906.84
2018-01-12T01:03:44.359Z,101908.56
2018-01-12T01:06:57.110Z,101911.09
2018-01-12T01:10:05.219Z,101915.30
2018-01-12T01:13:16.515Z,101912.79
2018-01-12T01:16:30.730Z,101916.14
2018-01-12T01:19:39.954Z,101925.88
2018-01-12T01:22:54.748Z,101925.88
2018-01-12T01:26:07.315Z,101927.15
2018-01-12T01:29:21.126Z,101932.22
2018-01-12T01:32:32.671Z,101938.57
2018-01-12T01:35:47.630Z,101943.23
2018-01-12T01:38:56.354Z,101941.53
2018-01-12T01:42:05.761Z,101944.07
2018-01-12T01:45:13.490Z,101946.19
2018-01-12T01:48:37.825Z,101951.69
2018-01-12T01:51:52.819Z,101953.77
2018-01-12T01:55:02.662Z,101961.38
2018-01-12T01:58:12.050Z,101959.27
2018-01-12T02:01:26.668Z,101961.80
2018-01-12T02:04:38.841Z,101966.45
2018-01-12T02:07:51.050Z,101971.95
2018-01-12T02:11:02.352Z,101977.03
2018-01-12T02:14:13.342Z,101978.72
2018-01-12T02:17:29.446Z,101984.64
2018-01-12T02:20:42.158Z,101987.98
2018-01-12T02:23:52.324Z,101988.84
2018-01-12T02:27:04.770Z,101991.38
2018-01-12T02:30:17.638Z,101994.76
2018-01-12T02:33:28.657Z,102000.25
2018-01-12T02:36:37.902Z,101997.30
2018-01-12T02:39:48.878Z,101997.29
2018-01-12T02:42:58.890Z,101996.02
2018-01-12T02:49:24.004Z,102005.33
2018-01-12T02:52:52.815Z,102005.32
2018-01-12T02:56:10.449Z,102015.47
2018-01-12T02:59:21.028Z,102016.74
2018-01-12T03:02:32.883Z,102028.54
2018-01-12T03:05:45.643Z,102032.39
2018-01-12T03:08:57.516Z,102027.27
2018-01-12T03:12:08.078Z,102034.45
2018-01-12T03:15:19.932Z,102037.00
2018-01-12T03:18:31.110Z,102036.57
2018-01-12T03:21:42.583Z,102033.61
2018-01-12T03:24:53.393Z,102037.41
2018-01-12T03:28:07.369Z,102035.72
2018-01-12T03:31:21.013Z,102038.68
2018-01-12T03:34:31.430Z,102040.37
2018-01-12T03:37:41.222Z,102046.72
2018-01-12T03:40:53.276Z,102036.98
2018-01-12T03:44:05.748Z,102039.05
2018-01-12T03:47:15.293Z,102037.40
2018-01-12T03:50:28.381Z,102031.91
2018-01-12T03:53:41.183Z,102038.25
2018-01-12T03:56:56.856Z,102039.52
2018-01-12T04:00:07.232Z,102038.63
2018-01-12T04:03:17.432Z,102041.21
2018-01-12T04:06:29.690Z,102052.21
2018-01-12T04:09:38.372Z,102051.37
2018-01-12T04:12:49.879Z,102050.09
2018-01-12T04:16:00.296Z,102054.73
2018-01-12T04:19:10.874Z,102050.94
2018-01-12T04:22:21.238Z,102054.75
2018-01-12T04:25:33.081Z,102054.31
2018-01-12T04:28:42.676Z,102059.34
2018-01-12T04:31:55.214Z,102064.88
2018-01-12T04:35:08.496Z,102062.30
2018-01-12T04:38:19.232Z,102064.84
2018-01-12T04:41:29.237Z,102059.77
2018-01-12T04:44:47.200Z,102063.98
2018-01-12T04:47:57.572Z,102063.56
2018-01-12T04:51:10.093Z,102075.83
2018-01-12T04:54:20.746Z,102077.09
2018-01-12T04:57:34.928Z,102081.75
2018-01-12T05:00:46.428Z,102085.54
2018-01-12T05:03:55.884Z,102081.75
2018-01-12T05:07:03.776Z,102088.52
2018-01-12T05:10:14.806Z,102090.63
2018-01-12T05:13:32.829Z,102100.35
2018-01-12T05:16:44.031Z,102096.09
2018-01-12T05:19:57.077Z,102104.98
2018-01-12T05:23:09.105Z,102105.40
2018-01-12T05:26:20.270Z,102113.42
2018-01-12T05:29:30.349Z,102108.37
2018-01-12T05:32:39.124Z,102104.56
2018-01-12T05:35:49.689Z,102106.66
2018-01-12T05:38:58.850Z,102119.34
2018-01-12T05:42:09.538Z,102119.34
2018-01-12T05:45:21.608Z,102122.73
2018-01-12T05:48:31.926Z,102119.30
2018-01-12T05:51:42.192Z,102124.84
2018-01-12T05:54:53.841Z,102133.25
2018-01-12T05:58:05.280Z,102140.43
2018-01-12T06:01:25.883Z,102140.85
2018-01-12T06:04:45.837Z,102145.06
2018-01-12T06:08:02.724Z,102144.23
2018-01-12T06:11:14.469Z,102148.04
2018-01-12T06:14:25.676Z,102150.14
2018-01-12T06:17:37.175Z,102147.59
2018-01-12T06:20:50.628Z,102145.06
2018-01-12T06:24:01.047Z,102149.70
2018-01-12T06:27:13.420Z,102158.17
2018-01-12T06:30:22.544Z,102158.59
2018-01-12T06:33:31.700Z,102157.33
2018-01-12T06:36:39.762Z,102164.92
2018-01-12T06:39:51.532Z,102177.60
2018-01-12T06:43:01.772Z,102180.58
2018-01-12T06:46:12.561Z,102181.82
2018-01-12T06:49:23.186Z,102183.54
2018-01-12T06:52:34.684Z,102189.44
2018-01-12T06:55:46.826Z,102192.41
2018-01-12T06:58:57.187Z,102190.72
2018-01-12T07:02:08.195Z,102197.08
2018-01-12T07:05:21.916Z,102198.33
2018-01-12T07:08:31.901Z,102204.23
2018-01-12T07:11:41.432Z,102205.51
2018-01-12T07:14:54.500Z,102207.61
2018-01-12T07:18:05.868Z,102205.08
2018-01-12T07:21:26.566Z,102211.84
2018-01-12T07:24:39.765Z,102216.06
2018-01-12T07:27:54.021Z,102214.36
2018-01-12T07:31:04.161Z,102221.55
2018-01-12T07:34:15.461Z,102221.08
2018-01-12T07:37:27.530Z,102226.16
2018-01-12T07:40:36.707Z,102237.19
2018-01-12T07:43:47.791Z,102245.23
2018-01-12T07:46:58.487Z,102252.85
2018-01-12T07:50:13.953Z,102254.53
2018-01-12T07:53:25.879Z,102255.80
2018-01-12T07:56:38.588Z,102253.69
2018-01-12T07:59:52.087Z,102254.11
2018-01-12T08:03:09.850Z,102263.85
2018-01-12T08:06:17.475Z,102254.53
2018-01-12T08:09:26.573Z,102257.47
2018-01-12T08:12:37.025Z,102261.31
2018-01-12T08:15:47.095Z,102262.57
2018-01-12T08:18:56.748Z,102262.55
2018-01-12T08:22:06.395Z,102266.36
2018-01-12T08:25:31.021Z,102270.63
2018-01-12T08:28:42.301Z,102273.14
2018-01-12T08:31:54.412Z,102280.75
2018-01-12T08:35:03.472Z,102281.18
2018-01-12T08:38:13.944Z,102292.17
2018-01-12T08:41:24.122Z,102294.30
2018-01-12T08:44:33.025Z,102306.12
2018-01-12T08:47:43.916Z,102308.23
2018-01-12T08:50:54.384Z,102310.77
2018-01-12T08:54:05.553Z,102326.41
2018-01-12T08:57:16.929Z,102326.00
2018-01-12T09:00:35.892Z,102329.80
2018-01-12T09:03:48.357Z,102341.23
2018-01-12T09:06:58.457Z,102344.63
2018-01-12T09:10:10.252Z,102341.76
2018-01-12T09:13:31.756Z,102354.84
2018-01-12T09:16:40.933Z,102359.50
2018-01-12T09:19:54.389Z,102362.55
2018-01-12T09:26:36.576Z,102357.80
2018-01-12T09:29:46.784Z,102355.67
2018-01-12T09:33:04.312Z,102360.75
2018-01-12T09:36:13.922Z,102367.95
2018-01-12T09:39:32.780Z,102364.97
2018-01-12T09:42:45.431Z,102371.35
2018-01-12T09:45:56.890Z,102365.82
2018-01-12T09:49:10.912Z,102379.40
2018-01-12T09:52:25.219Z,102381.48
2018-01-12T09:55:36.462Z,102382.76
2018-01-12T09:58:52.308Z,102384.45
2018-01-12T10:02:01.710Z,102384.13
2018-01-12T10:05:15.176Z,102388.80
2018-01-12T10:08:32.259Z,102390.08
2018-01-12T10:11:43.731Z,102394.28
2018-01-12T10:14:55.802Z,102394.27
2018-01-12T10:18:12.169Z,102394.73
2018-01-12T10:21:36.349Z,102386.72
2018-01-12T10:24:46.834Z,102391.74
2018-01-12T10:27:57.627Z,102399.87
2018-01-12T10:31:05.458Z,102400.67
2018-01-12T10:34:17.730Z,102391.34
2018-01-12T10:37:29.242Z,102396.39
2018-01-12T10:40:48.733Z,102401.89
2018-01-12T10:44:03.632Z,102409.08
2018-01-12T10:50:57.908Z,102414.55
2018-01-12T10:54:12.221Z,102412.86
2018-01-12T10:57:22.596Z,102411.53
2018-01-12T11:00:35.685Z,102414.13
2018-01-12T11:03:46.459Z,102420.48
2018-01-12T11:06:57.264Z,102423.44
2018-01-12T11:10:12.190Z,102437.39
2018-01-12T11:13:24.918Z,102439.50
2018-01-12T11:16:39.388Z,102433.96
2018-01-12T11:19:52.572Z,102433.59
2018-01-12T11:23:03.226Z,102439.52
2018-01-12T11:26:15.850Z,102441.24
2018-01-12T11:29:26.732Z,102434.88
2018-01-12T11:32:40.166Z,102434.44
2018-01-12T11:35:51.048Z,102439.52
2018-01-12T11:39:03.039Z,102438.69
2018-01-12T11:42:13.957Z,102438.27
2018-01-12T11:45:23.419Z,102435.72
2018-01-12T11:48:33.262Z,102436.14
2018-01-12T11:51:47.408Z,102439.55
2018-01-12T11:54:57.606Z,102441.66
2018-01-12T11:58:09.241Z,102441.64
2018-01-12T12:01:19.961Z,102437.01
2018-01-12T12:04:32.087Z,102440.39
2018-01-12T12:07:46.372Z,102439.52
2018-01-12T12:10:58.349Z,102441.70
2018-01-12T12:14:08.369Z,102434.92
2018-01-12T12:17:20.646Z,102428.58
2018-01-12T12:20:34.817Z,102426.45
2018-01-12T12:23:46.672Z,102433.20
2018-01-12T12:26:57.420Z,102435.34
2018-01-12T12:30:07.217Z,102426.03
2018-01-12T12:33:19.650Z,102431.19
2018-01-12T12:39:49.919Z,102428.62
2018-01-12T12:43:00.295Z,102423.09
2018-01-12T12:46:10.557Z,102422.72
2018-01-12T12:49:21.562Z,102419.38
2018-01-12T12:52:31.316Z,102419.76
2018-01-12T12:55:45.326Z,102427.75
2018-01-12T12:58:56.468Z,102426.47
2018-01-12T13:02:07.294Z,102420.55
2018-01-12T13:05:17.170Z,102416.75
2018-01-12T13:08:28.288Z,102422.22
2018-01-12T13:11:44.522Z,102421.41
2018-01-12T13:14:55.541Z,102423.50
2018-01-12T13:18:04.651Z,102426.05
2018-01-12T13:21:15.688Z,102426.95
2018-01-12T13:24:27.457Z,102425.21
2018-01-12T13:27:36.310Z,102424.83
2018-01-12T13:30:49.013Z,102427.36
2018-01-12T13:33:59.208Z,102431.59
2018-01-12T13:37:09.885Z,102432.88
2018-01-12T13:40:32.075Z,102430.37
2018-01-12T13:43:44.424Z,102433.28
2018-01-12T13:46:58.857Z,102441.74
2018-01-12T13:50:09.115Z,102452.69
2018-01-12T13:53:19.109Z,102450.99
2018-01-12T13:56:28.213Z,102445.48
2018-01-12T13:59:39.249Z,102456.08
2018-01-12T14:02:48.985Z,102453.53
2018-01-12T14:05:58.920Z,102461.15
2018-01-12T14:09:10.692Z,102464.95
2018-01-12T14:12:20.390Z,102468.76
2018-01-12T14:15:30.469Z,102464.53
2018-01-12T14:18:41.509Z,102470.42
2018-01-12T14:21:53.495Z,102465.33
2018-01-12T14:25:04.941Z,102468.28
2018-01-12T14:28:17.533Z,102464.88
2018-01-12T14:31:29.138Z,102467.02
2018-01-12T14:34:39.469Z,102470.01
2018-01-12T14:37:50.952Z,102472.96
2018-01-12T14:41:01.833Z,102475.06
2018-01-12T14:44:15.092Z,102475.06
2018-01-12T14:47:25.268Z,102473.77
2018-01-12T14:50:35.277Z,102475.82
2018-01-12T14:53:46.650Z,102472.86
2018-01-12T14:56:56.640Z,102470.31
2018-01-12T15:00:08.466Z,102476.66
2018-01-12T15:03:24.852Z,102479.19
2018-01-12T15:06:36.016Z,102482.58
2018-01-12T15:09:47.778Z,102480.44
2018-01-12T15:12:59.238Z,102473.27
2018-01-12T15:16:09.685Z,102476.23
2018-01-12T15:19:24.162Z,102485.94
2018-01-12T15:22:37.417Z,102485.48
2018-01-12T15:25:49.778Z,102485.09
2018-01-12T15:29:01.045Z,102487.62
2018-01-12T15:32:15.536Z,102487.63
2018-01-12T15:35:27.320Z,102482.48
2018-01-12T15:38:45.498Z,102486.33
2018-01-12T15:41:59.912Z,102488.02
2018-01-12T15:45:11.582Z,102480.38
2018-01-12T15:48:20.904Z,102489.72
2018-01-12T15:51:44.788Z,102486.75
2018-01-12T15:55:05.807Z,102485.47
2018-01-12T15:58:28.739Z,102495.20
2018-01-12T16:01:58.282Z,102497.34
2018-01-12T16:05:12.747Z,102500.20
2018-01-12T16:08:30.229Z,102506.95
2018-01-12T16:11:51.174Z,102512.55
2018-01-12T16:15:11.720Z,102513.30
2018-01-12T16:18:34.736Z,102517.49
2018-01-12T16:22:00.224Z,102519.19
2018-01-12T16:25:18.829Z,102518.80
2018-01-12T16:28:47.879Z,102530.20
2018-01-12T16:32:07.626Z,102522.98
2018-01-12T16:35:25.611Z,102525.53
2018-01-12T16:38:44.735Z,102525.10
2018-01-12T16:45:39.840Z,102528.89
2018-01-12T16:49:20.000Z,102528.46
2018-01-12T16:56:08.500Z,102535.20
2018-01-12T16:59:47.194Z,102540.72
2018-01-12T17:03:03.527Z,102540.67
2018-01-12T17:06:28.849Z,102547.86
2018-01-12T17:09:52.627Z,102545.32
2018-01-12T17:13:21.863Z,102536.92
2018-01-12T17:16:42.505Z,102540.61
2018-01-12T17:30:41.781Z,102539.28
2018-01-12T17:34:09.915Z,102534.25
2018-01-12T17:37:31.349Z,102536.76
2018-01-12T17:40:50.273Z,102544.38
2018-01-12T17:44:17.960Z,102537.61
2018-01-12T17:47:45.146Z,102544.27
2018-01-12T17:51:10.095Z,102537.14
2018-01-12T17:54:28.471Z,102543.91
2018-01-12T17:57:50.669Z,102548.95
2018-01-12T18:01:24.738Z,102554.88
2018-01-12T18:04:45.095Z,102559.53
2018-01-12T18:08:16.579Z,102558.63
2018-01-12T18:18:54.183Z,102573.00
2018-01-12T18:22:16.804Z,102570.86
2018-01-12T18:25:26.773Z,102567.02
2018-01-12T18:28:45.257Z,102571.27
2018-01-12T18:32:06.846Z,102580.11
2018-01-12T18:35:41.013Z,102576.28
2018-01-12T18:39:05.635Z,102571.67
2018-01-12T18:42:26.606Z,102578.02
2018-01-12T18:46:00.499Z,102580.13
2018-01-12T18:49:23.067Z,102584.75
2018-01-12T18:52:39.395Z,102582.95
2018-01-12T18:56:11.332Z,102588.94
2018-01-12T18:59:41.748Z,102588.55
2018-01-12T19:03:05.469Z,102591.48
2018-01-12T19:06:45.791Z,102585.61
2018-01-12T19:10:09.087Z,102591.05
2018-01-12T19:13:39.100Z,102587.72
2018-01-12T19:17:13.913Z,102585.09
2018-01-12T19:24:07.411Z,102584.25
2018-01-12T19:34:49.647Z,102580.80
2018-01-12T19:38:21.017Z,102585.93
2018-01-12T19:45:05.125Z,102585.43
2018-01-12T19:48:18.345Z,102590.95
2018-01-12T19:51:46.040Z,102588.38
2018-01-12T19:55:13.671Z,102598.92
2018-01-12T19:58:31.832Z,102602.72
2018-01-12T20:02:00.760Z,102598.05
2018-01-12T20:05:21.594Z,102598.83
2018-01-12T20:08:50.910Z,102598.81
2018-01-12T20:15:58.675Z,102599.62
2018-01-12T20:19:23.431Z,102595.80
2018-01-12T20:22:40.474Z,102594.16
2018-01-12T20:25:52.785Z,102589.03
2018-01-12T20:29:04.972Z,102587.74
2018-01-12T20:32:17.413Z,102587.77
2018-01-12T20:35:26.425Z,102594.08
2018-01-12T20:38:48.453Z,102596.58
2018-01-12T20:45:40.724Z,102593.98
2018-01-12T20:49:26.980Z,102601.19
2018-01-12T20:52:47.524Z,102598.70
2018-01-12T20:55:58.469Z,102597.75
2018-01-12T20:59:10.810Z,102601.66
2018-01-12T21:02:24.513Z,102599.14
2018-01-12T21:05:34.467Z,102601.23
2018-01-12T21:08:43.388Z,102599.48
2018-01-12T21:12:04.512Z,102594.00
2018-01-12T21:15:14.258Z,102596.17
2018-01-12T21:18:26.629Z,102592.69
2018-01-12T21:21:36.661Z,102601.54
2018-01-12T21:24:48.027Z,102597.73
2018-01-12T21:28:15.204Z,102598.98
2018-01-12T21:31:23.502Z,102595.69
2018-01-12T21:34:37.234Z,102598.27
2018-01-12T21:37:46.837Z,102601.23
2018-01-12T21:40:59.937Z,102598.63
2018-01-12T21:44:09.622Z,102593.52
2018-01-12T21:47:21.789Z,102597.73
2018-01-12T21:50:37.295Z,102598.23
2018-01-12T21:53:49.284Z,102599.87
2018-01-12T21:56:59.941Z,102602.81
2018-01-12T22:00:10.872Z,102596.49
2018-01-12T22:03:20.381Z,102606.63
2018-01-12T22:06:30.290Z,102609.60
2018-01-12T22:09:44.399Z,102601.57
2018-01-12T22:13:09.578Z,102606.77
2018-01-12T22:16:19.178Z,102602.45
2018-01-12T22:19:34.672Z,102603.83
2018-01-12T22:22:46.703Z,102600.81
2018-01-12T22:26:00.573Z,102598.70
2018-01-12T22:29:07.437Z,102601.18
2018-01-12T22:32:17.314Z,102594.42
2018-01-12T22:35:27.077Z,102603.46
2018-01-12T22:38:39.768Z,102603.88
2018-01-12T22:41:51.368Z,102598.30
2018-01-12T22:45:05.011Z,102607.28
2018-01-12T22:48:12.435Z,102601.69
2018-01-12T22:51:20.252Z,102604.13
2018-01-12T22:54:29.068Z,102602.09
2018-01-12T22:57:41.650Z,102607.58
2018-01-12T23:04:17.673Z,102604.12
2018-01-12T23:07:28.376Z,102608.77
2018-01-12T23:10:38.188Z,102609.31
2018-01-12T23:13:48.433Z,102603.47
2018-01-12T23:17:01.277Z,102607.22
2018-01-12T23:20:11.557Z,102609.27
2018-01-12T23:23:24.471Z,102602.58
2018-01-12T23:29:55.750Z,102604.73
2018-01-12T23:33:03.467Z,102608.09
2018-01-12T23:36:21.504Z,102603.37
2018-01-12T23:43:01.038Z,102608.89
2018-01-12T23:46:09.851Z,102608.84
2018-01-12T23:49:19.451Z,102607.98
2018-01-12T23:52:29.710Z,102599.98
2018-01-12T23:55:43.456Z,102597.48
2018-01-12T23:58:57.331Z,102600.86
